createdAt,value
2023-09-03T00:04:43.502Z,13.05518
2023-09-03T00:09:55.388Z,14.4395
2023-09-03T00:15:07.405Z,14.48868
2023-09-03T00:20:19.432Z,14.03175
2023-09-03T00:25:32.114Z,13.60977
2023-09-03T00:30:44.059Z,13.46442
2023-09-03T00:35:56.267Z,13.593
2023-09-03T00:41:08.297Z,12.89008
2023-09-03T00:46:20.392Z,12.64177
2023-09-03T00:51:32.540Z,12.74417
2023-09-03T00:56:44.565Z,12.35901
2023-09-03T01:01:56.464Z,12.62906
2023-09-03T01:07:08.997Z,13.6792
2023-09-03T01:12:20.904Z,13.72847
2023-09-03T01:17:32.845Z,13.27095
2023-09-03T01:22:44.820Z,12.85403
2023-09-03T01:27:56.715Z,12.70454
2023-09-03T01:33:08.674Z,12.28531
2023-09-03T01:38:20.766Z,12.55701
2023-09-03T01:43:32.991Z,12.41327
2023-09-03T01:48:44.976Z,12.29066
2023-09-03T01:53:56.879Z,12.13135
2023-09-03T01:59:08.977Z,12.06133
2023-09-03T02:04:21.002Z,12.14337
2023-09-03T02:09:32.954Z,11.92078
2023-09-03T02:14:46.922Z,11.78369
2023-09-03T02:19:58.828Z,11.69293
2023-09-03T02:25:10.852Z,11.76193
2023-09-03T02:30:22.750Z,11.71333
2023-09-03T02:35:34.655Z,11.65392
2023-09-03T02:40:46.566Z,11.55696
2023-09-03T02:45:58.517Z,12.76201
2023-09-03T02:51:10.457Z,13.422
2023-09-03T02:56:22.363Z,13.48965
2023-09-03T03:01:34.337Z,13.32306
2023-09-03T03:06:46.289Z,13.05876
2023-09-03T03:11:58.171Z,12.86794
2023-09-03T03:17:10.068Z,12.45917
2023-09-03T03:22:21.945Z,12.27972
2023-09-03T03:27:33.832Z,12.31122
2023-09-03T03:32:45.730Z,12.02905
2023-09-03T03:37:57.684Z,11.88754
2023-09-03T03:43:09.708Z,11.7836
2023-09-03T03:48:21.881Z,11.62796
2023-09-03T03:53:34.638Z,11.49432
2023-09-03T03:58:46.675Z,11.57553
2023-09-03T04:03:58.573Z,11.87465
2023-09-03T04:09:10.483Z,11.75534
2023-09-03T04:14:22.396Z,11.95219
2023-09-03T04:19:34.291Z,12.27319
2023-09-03T04:24:46.194Z,11.95943
2023-09-03T04:29:58.119Z,11.88789
2023-09-03T04:35:10.019Z,11.5753
2023-09-03T04:40:22.859Z,11.67427
2023-09-03T04:45:34.892Z,11.73764
2023-09-03T04:50:46.939Z,11.64758
2023-09-03T04:56:00.634Z,12.37523
2023-09-03T05:01:13.110Z,12.57016
2023-09-03T05:06:25.022Z,12.42274
2023-09-03T05:11:37.214Z,12.83766
2023-09-03T05:16:49.916Z,12.90498
2023-09-03T05:22:01.895Z,12.90933
2023-09-03T05:27:13.863Z,12.89973
2023-09-03T05:32:25.788Z,13.39973
2023-09-03T05:37:37.867Z,13.79308
2023-09-03T05:42:50.020Z,14.00075
2023-09-03T05:48:02.056Z,14.21848
2023-09-03T05:53:14.061Z,14.41795
2023-09-03T05:58:26.166Z,14.39671
2023-09-03T06:03:38.241Z,14.44574
2023-09-03T06:08:50.325Z,14.60965
2023-09-03T06:14:02.345Z,14.64999
2023-09-03T06:19:15.511Z,14.84299
2023-09-03T06:24:30.269Z,15.32555
2023-09-03T06:29:42.944Z,15.57591
2023-09-03T06:34:54.864Z,15.9514
2023-09-03T06:40:06.768Z,16.0497
2023-09-03T06:45:19.293Z,16.08913
2023-09-03T06:50:31.710Z,16.37041
2023-09-03T06:55:44.193Z,16.61713
2023-09-03T07:00:56.927Z,16.93427
2023-09-03T07:06:09.773Z,16.99522
2023-09-03T07:11:22.508Z,17.03004
2023-09-03T07:16:35.181Z,17.18581
2023-09-03T07:21:49.660Z,17.32594
2023-09-03T07:27:02.302Z,17.28633
2023-09-03T07:32:15.755Z,17.32771
2023-09-03T07:37:28.587Z,17.54362
2023-09-03T07:42:41.141Z,17.62032
2023-09-03T07:47:53.078Z,17.75494
2023-09-03T07:53:05.012Z,17.33261
2023-09-03T07:58:16.925Z,18.02704
2023-09-03T08:03:28.940Z,18.12436
2023-09-03T08:08:40.888Z,17.57155
2023-09-03T08:13:53.048Z,18.3712
2023-09-03T08:19:04.961Z,18.38043
2023-09-03T08:24:17.148Z,17.91849
2023-09-03T08:29:29.234Z,18.41069
2023-09-03T08:34:41.330Z,18.57857
2023-09-03T08:39:53.361Z,17.70273
2023-09-03T08:45:05.272Z,19.14063
2023-09-03T08:50:17.210Z,18.97197
2023-09-03T08:55:29.135Z,18.53149
2023-09-03T09:00:41.080Z,18.51552
2023-09-03T09:05:53.059Z,17.87978
2023-09-03T09:11:05.099Z,19.10342
2023-09-03T09:16:17.087Z,16.9776
2023-09-03T09:21:29.146Z,17.44632
2023-09-03T09:26:41.057Z,17.81529
2023-09-03T09:31:53.076Z,17.81102
2023-09-03T09:37:04.937Z,17.37575
2023-09-03T09:42:16.832Z,17.11783
2023-09-03T09:47:28.822Z,17.04366
2023-09-03T09:52:40.880Z,17.08043
2023-09-03T09:57:52.789Z,16.15373
2023-09-03T10:03:04.808Z,16.21248
2023-09-03T10:08:17.677Z,15.13489
2023-09-03T10:13:29.701Z,15.276
2023-09-03T10:18:42.123Z,15.19035
2023-09-03T10:23:54.408Z,14.80861
2023-09-03T10:29:06.311Z,15.60188
2023-09-03T10:34:18.285Z,15.34277
2023-09-03T10:39:30.210Z,15.11154
2023-09-03T10:44:42.299Z,14.85999
2023-09-03T10:49:54.375Z,14.50816
2023-09-03T10:55:06.417Z,14.7523
2023-09-03T11:00:18.713Z,15.00014
2023-09-03T11:05:30.717Z,14.06752
2023-09-03T11:10:43.352Z,14.83928
2023-09-03T11:15:55.398Z,14.41515
2023-09-03T11:21:07.354Z,14.50117
2023-09-03T11:26:19.257Z,15.13554
2023-09-03T11:31:31.286Z,14.1364
2023-09-03T11:36:43.341Z,14.75116
2023-09-03T11:41:55.335Z,14.97678
2023-09-03T11:47:07.425Z,14.82722
2023-09-03T11:52:19.475Z,15.72202
2023-09-03T11:57:31.772Z,14.84889
2023-09-03T12:02:43.707Z,15.0513
2023-09-03T12:07:55.727Z,15.8497
2023-09-03T12:13:07.690Z,14.83008
2023-09-03T12:18:20.105Z,14.39656
2023-09-03T12:23:32.002Z,15.72139
2023-09-03T12:28:45.950Z,15.30746
2023-09-03T12:33:57.923Z,14.8493
2023-09-03T12:39:09.827Z,15.17883
2023-09-03T12:44:22.283Z,15.21782
2023-09-03T12:49:34.831Z,14.84464
2023-09-03T12:54:47.540Z,15.68845
2023-09-03T13:00:14.686Z,14.82101
2023-09-03T13:05:26.825Z,14.5219
2023-09-03T13:10:39.355Z,14.8293
2023-09-03T13:15:51.916Z,15.25905
2023-09-03T13:21:04.459Z,14.92389
2023-09-03T13:26:17.077Z,14.7683
2023-09-03T13:31:29.728Z,14.68118
2023-09-03T13:42:33.941Z,14.85146
2023-09-03T13:47:48.317Z,15.1114
2023-09-03T13:53:00.868Z,15.66855
2023-09-03T13:58:13.358Z,14.3791
2023-09-03T14:03:26.224Z,14.36778
2023-09-03T14:08:38.266Z,15.30643
2023-09-03T14:13:50.751Z,15.54622
2023-09-03T14:19:03.375Z,15.0509
2023-09-03T14:24:24.849Z,15.13564
2023-09-03T14:29:37.347Z,15.01074
2023-09-03T14:34:49.853Z,14.68175
2023-09-03T14:40:02.409Z,14.48976
2023-09-03T14:56:27.138Z,14.4608
2023-09-03T15:01:39.340Z,14.42555
2023-09-03T15:06:51.905Z,14.18321
2023-09-03T15:12:04.618Z,14.66899
2023-09-03T15:17:17.289Z,14.58853
2023-09-03T15:22:46.280Z,14.40865
2023-09-03T15:27:58.855Z,13.94153
2023-09-03T15:33:10.822Z,14.52484
2023-09-03T15:38:23.060Z,14.28343
2023-09-03T15:43:35.111Z,14.04892
2023-09-03T15:48:47.014Z,14.17387
2023-09-03T15:53:58.914Z,13.84268
2023-09-03T15:59:13.220Z,14.17702
2023-09-03T16:04:25.306Z,13.94408
2023-09-03T16:09:37.225Z,13.85503
2023-09-03T16:14:49.865Z,14.3157
2023-09-03T16:20:03.055Z,14.07764
2023-09-03T16:25:15.617Z,14.0954
2023-09-03T16:30:46.107Z,13.50124
2023-09-03T16:35:58.584Z,13.43872
2023-09-03T16:41:12.110Z,13.45422
2023-09-03T16:46:25.034Z,13.32759
2023-09-03T16:51:37.992Z,13.46983
2023-09-03T16:56:49.895Z,13.03119
2023-09-03T17:02:02.081Z,12.90976
2023-09-03T17:07:14.883Z,12.76332
2023-09-03T17:12:27.315Z,12.8103
2023-09-03T17:17:40.979Z,12.83299
2023-09-03T17:22:54.116Z,12.8909
2023-09-03T17:28:06.218Z,12.97223
2023-09-03T17:33:18.313Z,13.00728
2023-09-03T17:38:30.242Z,13.08476
2023-09-03T17:43:42.141Z,13.20142
2023-09-03T17:48:54.061Z,13.37511
2023-09-03T17:54:06.130Z,13.3699
2023-09-03T18:04:35.596Z,13.40067
2023-09-03T18:09:47.553Z,13.21472
2023-09-03T18:14:59.454Z,13.61171
2023-09-03T18:20:11.350Z,13.4881
2023-09-03T18:25:23.244Z,13.35558
2023-09-03T18:30:35.141Z,13.3963
2023-09-03T18:35:47.087Z,13.43414
2023-09-03T18:40:58.995Z,13.37987
2023-09-03T18:46:11.080Z,13.10335
2023-09-03T18:51:23.039Z,13.06149
2023-09-03T18:56:34.955Z,13.13855
2023-09-03T19:01:46.901Z,12.54239
2023-09-03T19:06:58.892Z,12.52142
2023-09-03T19:12:11.012Z,13.25647
2023-09-03T19:17:22.953Z,13.08121
2023-09-03T19:22:34.912Z,12.60411
2023-09-03T19:27:47.105Z,12.61958
2023-09-03T19:32:59.084Z,13.05615
2023-09-03T19:38:11.188Z,13.0356
2023-09-03T19:43:23.488Z,12.8985
2023-09-03T19:48:36.013Z,12.7395
2023-09-03T19:53:47.914Z,13.17076
2023-09-03T19:59:00.268Z,12.98854
2023-09-03T20:04:12.238Z,12.31026
2023-09-03T20:09:24.257Z,12.13632
2023-09-03T20:14:36.227Z,11.79741
2023-09-03T20:19:48.183Z,11.83606
2023-09-03T20:25:00.111Z,11.66356
2023-09-03T20:30:12.017Z,11.71913
2023-09-03T20:35:23.914Z,11.44847
2023-09-03T20:40:35.795Z,11.50766
2023-09-03T20:45:47.744Z,11.36879
2023-09-03T20:50:59.689Z,11.32181
2023-09-03T20:56:11.596Z,11.43391
2023-09-03T21:01:23.699Z,11.90631
2023-09-03T21:06:35.690Z,13.10742
2023-09-03T21:11:47.785Z,12.25711
2023-09-03T21:16:59.753Z,12.93321
2023-09-03T21:22:11.729Z,12.44841
2023-09-03T21:27:23.637Z,12.06938
2023-09-03T21:32:35.583Z,11.70003
2023-09-03T21:37:47.495Z,11.67038
2023-09-03T21:42:59.391Z,11.24225
2023-09-03T21:48:11.555Z,12.10539
2023-09-03T21:53:23.623Z,12.50443
2023-09-03T21:58:35.779Z,12.84412
2023-09-03T22:09:05.501Z,11.76357
2023-09-03T22:14:17.471Z,11.37407
2023-09-03T22:19:29.502Z,11.94505
2023-09-03T22:24:41.395Z,11.96941
2023-09-03T22:29:54.535Z,12.44492
2023-09-03T22:35:06.620Z,12.46645
2023-09-03T22:40:18.538Z,11.74353
2023-09-03T22:45:30.702Z,11.37665
2023-09-03T22:50:43.497Z,10.99712
2023-09-03T22:55:55.393Z,11.0843
2023-09-03T23:01:07.386Z,11.14098
2023-09-03T23:06:19.295Z,10.96941
2023-09-03T23:11:31.254Z,10.93674
2023-09-03T23:16:43.199Z,12.14859
2023-09-03T23:21:55.317Z,12.74931
2023-09-03T23:27:07.245Z,11.86531
2023-09-03T23:32:19.140Z,11.50999
2023-09-03T23:37:31.036Z,11.44102
2023-09-03T23:42:43.034Z,12.06375
2023-09-03T23:47:54.955Z,12.09526
2023-09-03T23:53:06.938Z,11.39526
2023-09-03T23:58:18.844Z,12.22211
